sensor_id;sensor_type;location;lat;lon;timestamp;temperature;humidity
37886;DHT22;23726;52.520;13.434;2023-02-13T00:02:18;22.10;41.90
37886;DHT22;23726;52.520;13.434;2023-02-13T00:04:43;22.10;42.00
37886;DHT22;23726;52.520;13.434;2023-02-13T00:07:11;22.10;42.00
37886;DHT22;23726;52.520;13.434;2023-02-13T00:09:37;22.10;42.00
37886;DHT22;23726;52.520;13.434;2023-02-13T00:12:04;22.10;42.00
37886;DHT22;23726;52.520;13.434;2023-02-13T00:14:35;22.10;42.10
37886;DHT22;23726;52.520;13.434;2023-02-13T00:17:02;22.10;42.00
37886;DHT22;23726;52.520;13.434;2023-02-13T00:19:28;22.10;42.10
37886;DHT22;23726;52.520;13.434;2023-02-13T00:21:54;22.10;42.10
37886;DHT22;23726;52.520;13.434;2023-02-13T00:24:19;22.10;42.10
37886;DHT22;23726;52.520;13.434;2023-02-13T00:26:45;22.10;42.10
37886;DHT22;23726;52.520;13.434;2023-02-13T00:29:11;22.10;42.20
37886;DHT22;23726;52.520;13.434;2023-02-13T00:31:36;22.10;42.20
37886;DHT22;23726;52.520;13.434;2023-02-13T00:34:02;22.10;42.20
37886;DHT22;23726;52.520;13.434;2023-02-13T00:36:28;22.10;42.20
37886;DHT22;23726;52.520;13.434;2023-02-13T00:38:54;22.00;42.20
37886;DHT22;23726;52.520;13.434;2023-02-13T00:41:20;22.10;42.20
37886;DHT22;23726;52.520;13.434;2023-02-13T00:43:46;22.10;42.20
37886;DHT22;23726;52.520;13.434;2023-02-13T00:46:13;22.10;42.10
37886;DHT22;23726;52.520;13.434;2023-02-13T00:48:39;22.10;42.10
37886;DHT22;23726;52.520;13.434;2023-02-13T00:51:06;22.00;42.10
37886;DHT22;23726;52.520;13.434;2023-02-13T00:53:33;22.00;42.20
37886;DHT22;23726;52.520;13.434;2023-02-13T00:55:59;22.10;42.10
37886;DHT22;23726;52.520;13.434;2023-02-13T00:58:25;22.00;42.20
37886;DHT22;23726;52.520;13.434;2023-02-13T01:00:52;22.10;42.20
37886;DHT22;23726;52.520;13.434;2023-02-13T01:03:19;22.00;42.10
37886;DHT22;23726;52.520;13.434;2023-02-13T01:05:45;22.00;42.20
37886;DHT22;23726;52.520;13.434;2023-02-13T01:08:13;22.00;42.10
37886;DHT22;23726;52.520;13.434;2023-02-13T01:10:40;22.10;42.20
37886;DHT22;23726;52.520;13.434;2023-02-13T01:13:07;22.00;42.20
37886;DHT22;23726;52.520;13.434;2023-02-13T01:15:34;22.00;42.20
37886;DHT22;23726;52.520;13.434;2023-02-13T01:18:03;22.00;42.20
37886;DHT22;23726;52.520;13.434;2023-02-13T01:20:29;22.00;42.20
37886;DHT22;23726;52.520;13.434;2023-02-13T01:22:56;22.00;42.20
37886;DHT22;23726;52.520;13.434;2023-02-13T01:25:22;22.00;42.20
37886;DHT22;23726;52.520;13.434;2023-02-13T01:27:49;22.00;42.20
37886;DHT22;23726;52.520;13.434;2023-02-13T01:30:16;22.00;42.20
37886;DHT22;23726;52.520;13.434;2023-02-13T01:32:44;22.00;42.20
37886;DHT22;23726;52.520;13.434;2023-02-13T01:35:11;22.00;42.20
37886;DHT22;23726;52.520;13.434;2023-02-13T01:37:38;22.00;42.20
37886;DHT22;23726;52.520;13.434;2023-02-13T01:40:06;22.00;42.20
37886;DHT22;23726;52.520;13.434;2023-02-13T01:42:33;22.00;42.20
37886;DHT22;23726;52.520;13.434;2023-02-13T01:45:04;22.00;42.20
37886;DHT22;23726;52.520;13.434;2023-02-13T01:47:42;22.00;42.20
37886;DHT22;23726;52.520;13.434;2023-02-13T01:50:12;22.00;42.20
37886;DHT22;23726;52.520;13.434;2023-02-13T01:52:44;22.00;42.80
37886;DHT22;23726;52.520;13.434;2023-02-13T01:55:11;22.00;42.20
37886;DHT22;23726;52.520;13.434;2023-02-13T01:57:39;22.00;42.20
37886;DHT22;23726;52.520;13.434;2023-02-13T02:00:11;22.00;42.20
37886;DHT22;23726;52.520;13.434;2023-02-13T02:02:41;22.00;42.20
37886;DHT22;23726;52.520;13.434;2023-02-13T02:05:09;22.00;42.10
37886;DHT22;23726;52.520;13.434;2023-02-13T02:07:37;22.00;42.20
37886;DHT22;23726;52.520;13.434;2023-02-13T02:10:11;22.00;42.20
37886;DHT22;23726;52.520;13.434;2023-02-13T02:15:34;22.00;42.20
37886;DHT22;23726;52.520;13.434;2023-02-13T02:18:00;22.00;42.20
37886;DHT22;23726;52.520;13.434;2023-02-13T02:23:30;22.00;42.50
37886;DHT22;23726;52.520;13.434;2023-02-13T02:43:23;22.00;42.30
37886;DHT22;23726;52.520;13.434;2023-02-13T02:52:13;22.00;42.20
37886;DHT22;23726;52.520;13.434;2023-02-13T02:55:04;22.00;42.30
37886;DHT22;23726;52.520;13.434;2023-02-13T02:57:34;21.90;42.20
37886;DHT22;23726;52.520;13.434;2023-02-13T03:00:22;21.90;42.60
37886;DHT22;23726;52.520;13.434;2023-02-13T03:03:19;21.90;42.10
37886;DHT22;23726;52.520;13.434;2023-02-13T03:06:13;21.90;42.10
37886;DHT22;23726;52.520;13.434;2023-02-13T03:08:42;21.90;42.00
37886;DHT22;23726;52.520;13.434;2023-02-13T03:11:30;21.90;42.70
37886;DHT22;23726;52.520;13.434;2023-02-13T03:14:19;22.00;42.10
37886;DHT22;23726;52.520;13.434;2023-02-13T03:16:46;22.00;42.30
37886;DHT22;23726;52.520;13.434;2023-02-13T03:25:21;21.90;42.20
37886;DHT22;23726;52.520;13.434;2023-02-13T03:28:24;21.90;42.30
37886;DHT22;23726;52.520;13.434;2023-02-13T03:31:19;21.90;42.00
37886;DHT22;23726;52.520;13.434;2023-02-13T03:33:59;21.90;42.20
37886;DHT22;23726;52.520;13.434;2023-02-13T03:36:42;21.90;42.10
37886;DHT22;23726;52.520;13.434;2023-02-13T03:42:34;21.90;42.10
37886;DHT22;23726;52.520;13.434;2023-02-13T03:45:09;21.90;42.00
37886;DHT22;23726;52.520;13.434;2023-02-13T03:47:56;21.90;42.00
37886;DHT22;23726;52.520;13.434;2023-02-13T03:50:24;21.90;42.00
37886;DHT22;23726;52.520;13.434;2023-02-13T03:52:59;21.90;41.90
37886;DHT22;23726;52.520;13.434;2023-02-13T03:55:30;21.90;42.00
37886;DHT22;23726;52.520;13.434;2023-02-13T03:58:20;21.90;41.90
37886;DHT22;23726;52.520;13.434;2023-02-13T04:01:07;21.90;42.20
37886;DHT22;23726;52.520;13.434;2023-02-13T04:03:39;21.90;42.20
37886;DHT22;23726;52.520;13.434;2023-02-13T04:06:20;21.90;42.10
37886;DHT22;23726;52.520;13.434;2023-02-13T04:08:49;21.90;42.10
37886;DHT22;23726;52.520;13.434;2023-02-13T04:11:29;22.00;42.20
37886;DHT22;23726;52.520;13.434;2023-02-13T04:14:06;21.90;42.10
37886;DHT22;23726;52.520;13.434;2023-02-13T04:16:40;21.90;42.00
37886;DHT22;23726;52.520;13.434;2023-02-13T04:19:08;21.90;42.20
37886;DHT22;23726;52.520;13.434;2023-02-13T04:21:35;21.90;42.10
37886;DHT22;23726;52.520;13.434;2023-02-13T04:24:03;21.90;42.00
37886;DHT22;23726;52.520;13.434;2023-02-13T04:26:38;21.90;42.10
37886;DHT22;23726;52.520;13.434;2023-02-13T04:29:04;21.90;42.20
37886;DHT22;23726;52.520;13.434;2023-02-13T04:31:30;21.90;42.30
37886;DHT22;23726;52.520;13.434;2023-02-13T04:33:59;22.00;42.20
37886;DHT22;23726;52.520;13.434;2023-02-13T04:36:25;22.00;42.40
37886;DHT22;23726;52.520;13.434;2023-02-13T04:38:50;22.00;42.20
37886;DHT22;23726;52.520;13.434;2023-02-13T04:41:16;22.00;42.30
37886;DHT22;23726;52.520;13.434;2023-02-13T04:43:42;22.00;42.20
37886;DHT22;23726;52.520;13.434;2023-02-13T04:46:08;22.00;42.10
37886;DHT22;23726;52.520;13.434;2023-02-13T04:48:34;22.00;42.30
37886;DHT22;23726;52.520;13.434;2023-02-13T04:51:00;22.00;42.20
37886;DHT22;23726;52.520;13.434;2023-02-13T04:53:25;22.00;42.20
37886;DHT22;23726;52.520;13.434;2023-02-13T04:55:51;22.00;42.30
37886;DHT22;23726;52.520;13.434;2023-02-13T04:58:17;22.00;42.10
37886;DHT22;23726;52.520;13.434;2023-02-13T05:00:43;22.00;42.40
37886;DHT22;23726;52.520;13.434;2023-02-13T05:03:11;22.00;42.20
37886;DHT22;23726;52.520;13.434;2023-02-13T05:05:38;22.00;42.20
37886;DHT22;23726;52.520;13.434;2023-02-13T05:08:07;22.00;42.00
37886;DHT22;23726;52.520;13.434;2023-02-13T05:10:34;22.00;42.20
37886;DHT22;23726;52.520;13.434;2023-02-13T05:13:00;22.00;42.10
37886;DHT22;23726;52.520;13.434;2023-02-13T05:15:26;22.00;41.90
37886;DHT22;23726;52.520;13.434;2023-02-13T05:17:51;22.00;42.10
37886;DHT22;23726;52.520;13.434;2023-02-13T05:20:17;22.00;42.30
37886;DHT22;23726;52.520;13.434;2023-02-13T05:22:45;22.00;42.20
37886;DHT22;23726;52.520;13.434;2023-02-13T05:25:31;22.00;42.30
37886;DHT22;23726;52.520;13.434;2023-02-13T05:27:57;22.00;42.20
37886;DHT22;23726;52.520;13.434;2023-02-13T05:30:23;22.00;42.20
37886;DHT22;23726;52.520;13.434;2023-02-13T05:32:49;22.00;42.20
37886;DHT22;23726;52.520;13.434;2023-02-13T05:35:21;22.00;42.30
37886;DHT22;23726;52.520;13.434;2023-02-13T05:37:50;22.00;42.30
37886;DHT22;23726;52.520;13.434;2023-02-13T05:40:16;22.00;42.30
37886;DHT22;23726;52.520;13.434;2023-02-13T05:42:42;22.00;42.30
37886;DHT22;23726;52.520;13.434;2023-02-13T05:45:08;22.00;42.50
37886;DHT22;23726;52.520;13.434;2023-02-13T05:47:34;22.00;42.30
37886;DHT22;23726;52.520;13.434;2023-02-13T05:50:00;22.00;42.40
37886;DHT22;23726;52.520;13.434;2023-02-13T05:52:26;22.00;42.30
37886;DHT22;23726;52.520;13.434;2023-02-13T05:54:53;22.00;42.30
37886;DHT22;23726;52.520;13.434;2023-02-13T05:57:18;22.00;42.20
37886;DHT22;23726;52.520;13.434;2023-02-13T05:59:44;21.90;42.40
37886;DHT22;23726;52.520;13.434;2023-02-13T06:02:11;22.00;42.30
37886;DHT22;23726;52.520;13.434;2023-02-13T06:04:37;22.00;42.40
37886;DHT22;23726;52.520;13.434;2023-02-13T06:07:03;21.90;42.20
37886;DHT22;23726;52.520;13.434;2023-02-13T06:09:29;21.90;42.30
37886;DHT22;23726;52.520;13.434;2023-02-13T06:11:55;22.00;42.40
37886;DHT22;23726;52.520;13.434;2023-02-13T06:14:21;22.00;42.30
37886;DHT22;23726;52.520;13.434;2023-02-13T06:16:47;22.00;42.30
37886;DHT22;23726;52.520;13.434;2023-02-13T06:19:13;22.00;42.50
37886;DHT22;23726;52.520;13.434;2023-02-13T06:21:39;22.00;42.40
37886;DHT22;23726;52.520;13.434;2023-02-13T06:24:06;22.00;42.40
37886;DHT22;23726;52.520;13.434;2023-02-13T06:26:32;22.00;42.50
37886;DHT22;23726;52.520;13.434;2023-02-13T06:28:58;22.00;42.30
37886;DHT22;23726;52.520;13.434;2023-02-13T06:31:24;22.00;42.30
37886;DHT22;23726;52.520;13.434;2023-02-13T06:33:50;22.00;42.30
37886;DHT22;23726;52.520;13.434;2023-02-13T06:36:16;22.00;42.30
37886;DHT22;23726;52.520;13.434;2023-02-13T06:38:42;22.00;42.30
37886;DHT22;23726;52.520;13.434;2023-02-13T06:41:08;22.00;42.30
37886;DHT22;23726;52.520;13.434;2023-02-13T06:43:35;22.00;42.30
37886;DHT22;23726;52.520;13.434;2023-02-13T06:46:04;22.00;42.40
37886;DHT22;23726;52.520;13.434;2023-02-13T06:48:32;22.00;42.40
37886;DHT22;23726;52.520;13.434;2023-02-13T06:50:58;22.00;42.40
37886;DHT22;23726;52.520;13.434;2023-02-13T06:53:23;22.00;42.50
37886;DHT22;23726;52.520;13.434;2023-02-13T06:55:51;22.00;42.40
37886;DHT22;23726;52.520;13.434;2023-02-13T06:58:18;22.00;42.40
37886;DHT22;23726;52.520;13.434;2023-02-13T07:00:44;22.00;42.40
37886;DHT22;23726;52.520;13.434;2023-02-13T07:03:10;22.00;42.40
37886;DHT22;23726;52.520;13.434;2023-02-13T07:05:41;22.00;42.50
37886;DHT22;23726;52.520;13.434;2023-02-13T07:08:09;22.00;42.40
37886;DHT22;23726;52.520;13.434;2023-02-13T07:10:39;22.00;42.50
37886;DHT22;23726;52.520;13.434;2023-02-13T07:13:05;22.00;42.50
37886;DHT22;23726;52.520;13.434;2023-02-13T07:15:35;22.00;42.50
37886;DHT22;23726;52.520;13.434;2023-02-13T07:18:01;22.00;42.50
37886;DHT22;23726;52.520;13.434;2023-02-13T07:20:27;22.00;42.50
37886;DHT22;23726;52.520;13.434;2023-02-13T07:23:00;22.00;42.50
37886;DHT22;23726;52.520;13.434;2023-02-13T07:25:26;22.00;42.50
37886;DHT22;23726;52.520;13.434;2023-02-13T07:27:51;22.00;42.50
37886;DHT22;23726;52.520;13.434;2023-02-13T07:30:17;22.00;42.50
37886;DHT22;23726;52.520;13.434;2023-02-13T07:32:43;22.00;42.40
37886;DHT22;23726;52.520;13.434;2023-02-13T07:35:08;22.00;42.40
37886;DHT22;23726;52.520;13.434;2023-02-13T07:37:35;22.00;42.40
37886;DHT22;23726;52.520;13.434;2023-02-13T07:40:00;22.00;42.40
37886;DHT22;23726;52.520;13.434;2023-02-13T07:42:31;22.00;42.40
37886;DHT22;23726;52.520;13.434;2023-02-13T07:44:56;22.00;42.30
37886;DHT22;23726;52.520;13.434;2023-02-13T07:47:23;22.00;42.40
37886;DHT22;23726;52.520;13.434;2023-02-13T07:49:51;22.00;42.40
37886;DHT22;23726;52.520;13.434;2023-02-13T07:52:17;22.00;42.40
37886;DHT22;23726;52.520;13.434;2023-02-13T07:54:42;22.00;42.40
37886;DHT22;23726;52.520;13.434;2023-02-13T07:57:12;22.00;42.40
37886;DHT22;23726;52.520;13.434;2023-02-13T07:59:38;22.00;42.40
37886;DHT22;23726;52.520;13.434;2023-02-13T08:02:04;22.00;42.40
37886;DHT22;23726;52.520;13.434;2023-02-13T08:04:30;22.00;42.40
37886;DHT22;23726;52.520;13.434;2023-02-13T08:06:56;21.90;42.30
37886;DHT22;23726;52.520;13.434;2023-02-13T08:09:22;22.00;42.40
37886;DHT22;23726;52.520;13.434;2023-02-13T08:12:08;22.00;42.30
37886;DHT22;23726;52.520;13.434;2023-02-13T08:14:34;21.90;42.20
37886;DHT22;23726;52.520;13.434;2023-02-13T08:17:00;21.90;42.30
37886;DHT22;23726;52.520;13.434;2023-02-13T08:19:26;21.90;42.20
37886;DHT22;23726;52.520;13.434;2023-02-13T08:21:52;21.90;42.30
37886;DHT22;23726;52.520;13.434;2023-02-13T08:24:19;21.90;42.20
37886;DHT22;23726;52.520;13.434;2023-02-13T08:26:45;21.90;42.70
37886;DHT22;23726;52.520;13.434;2023-02-13T08:29:12;22.00;42.20
37886;DHT22;23726;52.520;13.434;2023-02-13T08:31:39;22.00;42.30
37886;DHT22;23726;52.520;13.434;2023-02-13T08:34:05;22.00;42.30
37886;DHT22;23726;52.520;13.434;2023-02-13T08:36:31;22.00;42.30
37886;DHT22;23726;52.520;13.434;2023-02-13T08:38:57;22.00;42.30
37886;DHT22;23726;52.520;13.434;2023-02-13T08:41:22;21.90;42.20
37886;DHT22;23726;52.520;13.434;2023-02-13T08:43:49;22.00;42.30
37886;DHT22;23726;52.520;13.434;2023-02-13T08:46:16;22.00;42.30
37886;DHT22;23726;52.520;13.434;2023-02-13T08:48:42;22.00;42.30
37886;DHT22;23726;52.520;13.434;2023-02-13T08:51:10;22.00;42.30
37886;DHT22;23726;52.520;13.434;2023-02-13T08:53:37;21.90;42.20
37886;DHT22;23726;52.520;13.434;2023-02-13T08:56:02;22.00;42.30
37886;DHT22;23726;52.520;13.434;2023-02-13T08:58:28;22.00;42.30
37886;DHT22;23726;52.520;13.434;2023-02-13T09:00:55;22.00;42.30
37886;DHT22;23726;52.520;13.434;2023-02-13T09:03:21;22.00;42.30
37886;DHT22;23726;52.520;13.434;2023-02-13T09:05:47;22.00;42.30
37886;DHT22;23726;52.520;13.434;2023-02-13T09:08:13;22.00;42.30
37886;DHT22;23726;52.520;13.434;2023-02-13T09:10:40;22.00;42.80
37886;DHT22;23726;52.520;13.434;2023-02-13T09:13:08;22.00;42.40
37886;DHT22;23726;52.520;13.434;2023-02-13T09:15:38;22.00;41.40
37886;DHT22;23726;52.520;13.434;2023-02-13T09:18:06;21.90;41.40
37886;DHT22;23726;52.520;13.434;2023-02-13T09:20:32;21.90;40.90
37886;DHT22;23726;52.520;13.434;2023-02-13T09:22:59;21.90;40.60
37886;DHT22;23726;52.520;13.434;2023-02-13T09:25:25;21.90;40.30
37886;DHT22;23726;52.520;13.434;2023-02-13T09:27:51;21.90;40.30
37886;DHT22;23726;52.520;13.434;2023-02-13T09:30:17;21.90;40.10
37886;DHT22;23726;52.520;13.434;2023-02-13T09:32:51;21.90;40.00
37886;DHT22;23726;52.520;13.434;2023-02-13T09:35:18;21.90;39.90
37886;DHT22;23726;52.520;13.434;2023-02-13T09:37:44;21.90;39.80
37886;DHT22;23726;52.520;13.434;2023-02-13T09:40:34;21.90;39.80
37886;DHT22;23726;52.520;13.434;2023-02-13T09:43:16;21.90;39.70
37886;DHT22;23726;52.520;13.434;2023-02-13T09:45:43;21.90;39.70
37886;DHT22;23726;52.520;13.434;2023-02-13T09:48:20;21.90;39.70
37886;DHT22;23726;52.520;13.434;2023-02-13T09:50:47;21.90;39.60
37886;DHT22;23726;52.520;13.434;2023-02-13T09:53:21;21.90;39.60
37886;DHT22;23726;52.520;13.434;2023-02-13T09:55:58;21.90;39.60
37886;DHT22;23726;52.520;13.434;2023-02-13T10:01:05;21.90;39.60
37886;DHT22;23726;52.520;13.434;2023-02-13T10:03:51;21.90;39.60
37886;DHT22;23726;52.520;13.434;2023-02-13T10:06:28;21.90;39.50
37886;DHT22;23726;52.520;13.434;2023-02-13T10:17:28;21.80;39.40
37886;DHT22;23726;52.520;13.434;2023-02-13T10:20:02;21.80;39.40
37886;DHT22;23726;52.520;13.434;2023-02-13T10:22:37;21.80;39.40
37886;DHT22;23726;52.520;13.434;2023-02-13T10:25:16;21.80;39.40
37886;DHT22;23726;52.520;13.434;2023-02-13T10:27:45;21.80;39.60
37886;DHT22;23726;52.520;13.434;2023-02-13T10:30:29;21.80;39.40
37886;DHT22;23726;52.520;13.434;2023-02-13T10:33:20;21.80;39.50
37886;DHT22;23726;52.520;13.434;2023-02-13T10:38:56;21.80;39.40
37886;DHT22;23726;52.520;13.434;2023-02-13T11:03:17;21.80;39.60
37886;DHT22;23726;52.520;13.434;2023-02-13T11:05:43;21.80;39.60
37886;DHT22;23726;52.520;13.434;2023-02-13T11:10:57;21.80;39.50
37886;DHT22;23726;52.520;13.434;2023-02-13T11:13:28;21.80;39.50
37886;DHT22;23726;52.520;13.434;2023-02-13T11:16:03;21.80;39.60
37886;DHT22;23726;52.520;13.434;2023-02-13T11:18:34;21.80;39.50
37886;DHT22;23726;52.520;13.434;2023-02-13T11:21:10;21.80;39.40
37886;DHT22;23726;52.520;13.434;2023-02-13T11:23:48;21.80;39.30
37886;DHT22;23726;52.520;13.434;2023-02-13T11:26:21;21.80;39.40
37886;DHT22;23726;52.520;13.434;2023-02-13T11:28:54;21.80;39.40
37886;DHT22;23726;52.520;13.434;2023-02-13T11:31:25;21.80;40.00
37886;DHT22;23726;52.520;13.434;2023-02-13T11:33:52;21.80;39.30
37886;DHT22;23726;52.520;13.434;2023-02-13T11:36:29;21.80;39.30
37886;DHT22;23726;52.520;13.434;2023-02-13T11:41:24;21.90;40.30
37886;DHT22;23726;52.520;13.434;2023-02-13T11:43:55;21.90;40.00
37886;DHT22;23726;52.520;13.434;2023-02-13T11:46:28;21.90;40.30
37886;DHT22;23726;52.520;13.434;2023-02-13T11:52:05;21.90;40.60
37886;DHT22;23726;52.520;13.434;2023-02-13T11:54:40;21.90;40.70
37886;DHT22;23726;52.520;13.434;2023-02-13T11:59:57;21.80;40.40
37886;DHT22;23726;52.520;13.434;2023-02-13T12:02:27;21.80;40.30
37886;DHT22;23726;52.520;13.434;2023-02-13T12:07:41;21.80;40.20
37886;DHT22;23726;52.520;13.434;2023-02-13T12:10:27;21.80;40.00
37886;DHT22;23726;52.520;13.434;2023-02-13T12:13:03;21.80;39.90
37886;DHT22;23726;52.520;13.434;2023-02-13T12:15:32;21.80;39.90
37886;DHT22;23726;52.520;13.434;2023-02-13T12:18:26;21.80;39.90
37886;DHT22;23726;52.520;13.434;2023-02-13T12:34:41;21.80;39.40
37886;DHT22;23726;52.520;13.434;2023-02-13T12:43:29;21.80;39.30
37886;DHT22;23726;52.520;13.434;2023-02-13T13:01:25;21.80;39.20
37886;DHT22;23726;52.520;13.434;2023-02-13T13:10:00;21.70;39.00
37886;DHT22;23726;52.520;13.434;2023-02-13T13:12:45;21.70;39.00
37886;DHT22;23726;52.520;13.434;2023-02-13T13:18:19;21.70;38.90
37886;DHT22;23726;52.520;13.434;2023-02-13T13:26:37;21.70;39.30
37886;DHT22;23726;52.520;13.434;2023-02-13T13:29:09;21.70;38.70
37886;DHT22;23726;52.520;13.434;2023-02-13T13:31:38;21.70;38.70
37886;DHT22;23726;52.520;13.434;2023-02-13T13:34:11;21.70;38.60
37886;DHT22;23726;52.520;13.434;2023-02-13T13:36:43;21.70;38.60
37886;DHT22;23726;52.520;13.434;2023-02-13T13:39:32;21.70;38.70
37886;DHT22;23726;52.520;13.434;2023-02-13T13:42:32;21.70;38.60
37886;DHT22;23726;52.520;13.434;2023-02-13T13:48:05;21.70;38.60
37886;DHT22;23726;52.520;13.434;2023-02-13T13:50:38;21.70;38.50
37886;DHT22;23726;52.520;13.434;2023-02-13T13:53:15;21.70;39.00
37886;DHT22;23726;52.520;13.434;2023-02-13T13:58:30;21.70;38.50
37886;DHT22;23726;52.520;13.434;2023-02-13T14:03:53;21.70;38.50
37886;DHT22;23726;52.520;13.434;2023-02-13T14:06:28;21.70;38.40
37886;DHT22;23726;52.520;13.434;2023-02-13T14:09:38;21.70;38.50
37886;DHT22;23726;52.520;13.434;2023-02-13T14:14:51;21.70;38.40
37886;DHT22;23726;52.520;13.434;2023-02-13T14:20:22;21.70;38.40
37886;DHT22;23726;52.520;13.434;2023-02-13T14:22:51;21.70;38.40
37886;DHT22;23726;52.520;13.434;2023-02-13T14:25:25;21.70;38.30
37886;DHT22;23726;52.520;13.434;2023-02-13T14:27:58;21.70;38.30
37886;DHT22;23726;52.520;13.434;2023-02-13T14:30:27;21.70;38.30
37886;DHT22;23726;52.520;13.434;2023-02-13T14:32:54;21.70;38.20
37886;DHT22;23726;52.520;13.434;2023-02-13T14:35:27;21.70;38.20
37886;DHT22;23726;52.520;13.434;2023-02-13T14:37:56;21.70;38.20
37886;DHT22;23726;52.520;13.434;2023-02-13T14:40:48;21.70;38.20
37886;DHT22;23726;52.520;13.434;2023-02-13T14:43:27;21.70;38.10
37886;DHT22;23726;52.520;13.434;2023-02-13T14:48:50;21.70;38.10
37886;DHT22;23726;52.520;13.434;2023-02-13T14:54:35;21.70;38.10
37886;DHT22;23726;52.520;13.434;2023-02-13T14:57:13;21.70;38.00
37886;DHT22;23726;52.520;13.434;2023-02-13T14:59:47;21.70;38.00
37886;DHT22;23726;52.520;13.434;2023-02-13T15:02:26;21.70;38.00
37886;DHT22;23726;52.520;13.434;2023-02-13T15:05:01;21.70;38.00
37886;DHT22;23726;52.520;13.434;2023-02-13T15:07:30;21.70;37.90
37886;DHT22;23726;52.520;13.434;2023-02-13T15:10:41;21.70;37.90
37886;DHT22;23726;52.520;13.434;2023-02-13T15:13:21;21.70;37.90
37886;DHT22;23726;52.520;13.434;2023-02-13T15:16:15;21.70;37.80
37886;DHT22;23726;52.520;13.434;2023-02-13T15:18:49;21.60;37.80
37886;DHT22;23726;52.520;13.434;2023-02-13T15:21:21;21.70;37.90
37886;DHT22;23726;52.520;13.434;2023-02-13T15:23:52;21.60;37.80
37886;DHT22;23726;52.520;13.434;2023-02-13T15:26:23;21.60;37.70
37886;DHT22;23726;52.520;13.434;2023-02-13T15:29:15;21.70;37.80
37886;DHT22;23726;52.520;13.434;2023-02-13T15:31:42;21.60;37.70
37886;DHT22;23726;52.520;13.434;2023-02-13T15:34:23;21.60;37.70
37886;DHT22;23726;52.520;13.434;2023-02-13T15:36:51;21.70;37.70
37886;DHT22;23726;52.520;13.434;2023-02-13T15:39:20;21.60;37.60
37886;DHT22;23726;52.520;13.434;2023-02-13T15:41:50;21.60;37.60
37886;DHT22;23726;52.520;13.434;2023-02-13T15:44:23;21.70;37.70
37886;DHT22;23726;52.520;13.434;2023-02-13T15:46:51;21.70;37.60
37886;DHT22;23726;52.520;13.434;2023-02-13T15:49:23;21.60;37.60
37886;DHT22;23726;52.520;13.434;2023-02-13T15:51:50;21.60;37.50
37886;DHT22;23726;52.520;13.434;2023-02-13T15:54:34;21.70;37.40
37886;DHT22;23726;52.520;13.434;2023-02-13T15:57:03;21.70;37.50
37886;DHT22;23726;52.520;13.434;2023-02-13T15:59:36;21.70;38.00
37886;DHT22;23726;52.520;13.434;2023-02-13T16:02:04;21.60;37.40
37886;DHT22;23726;52.520;13.434;2023-02-13T16:04:35;21.60;37.40
37886;DHT22;23726;52.520;13.434;2023-02-13T16:07:01;21.60;37.30
37886;DHT22;23726;52.520;13.434;2023-02-13T16:09:34;21.60;37.40
37886;DHT22;23726;52.520;13.434;2023-02-13T16:12:21;21.60;37.30
37886;DHT22;23726;52.520;13.434;2023-02-13T16:15:01;21.60;37.40
37886;DHT22;23726;52.520;13.434;2023-02-13T16:17:38;21.60;37.30
37886;DHT22;23726;52.520;13.434;2023-02-13T16:23:02;21.60;37.30
37886;DHT22;23726;52.520;13.434;2023-02-13T16:25:35;21.70;37.30
37886;DHT22;23726;52.520;13.434;2023-02-13T16:30:40;21.60;37.30
37886;DHT22;23726;52.520;13.434;2023-02-13T16:41:30;21.60;37.20
37886;DHT22;23726;52.520;13.434;2023-02-13T16:44:04;21.60;37.20
37886;DHT22;23726;52.520;13.434;2023-02-13T16:46:38;21.60;37.10
37886;DHT22;23726;52.520;13.434;2023-02-13T16:51:43;21.60;37.20
37886;DHT22;23726;52.520;13.434;2023-02-13T16:56:44;21.60;37.20
37886;DHT22;23726;52.520;13.434;2023-02-13T17:01:46;21.60;37.10
37886;DHT22;23726;52.520;13.434;2023-02-13T17:04:23;21.60;37.00
37886;DHT22;23726;52.520;13.434;2023-02-13T17:06:58;21.60;37.50
37886;DHT22;23726;52.520;13.434;2023-02-13T17:09:24;21.60;37.00
37886;DHT22;23726;52.520;13.434;2023-02-13T17:11:50;21.60;37.00
37886;DHT22;23726;52.520;13.434;2023-02-13T17:14:17;21.60;37.00
37886;DHT22;23726;52.520;13.434;2023-02-13T17:16:43;21.60;37.00
37886;DHT22;23726;52.520;13.434;2023-02-13T17:19:09;21.60;37.50
37886;DHT22;23726;52.520;13.434;2023-02-13T17:21:35;21.60;37.00
37886;DHT22;23726;52.520;13.434;2023-02-13T17:24:01;21.60;37.00
37886;DHT22;23726;52.520;13.434;2023-02-13T17:26:28;21.60;37.00
37886;DHT22;23726;52.520;13.434;2023-02-13T17:28:54;21.60;36.90
37886;DHT22;23726;52.520;13.434;2023-02-13T17:31:19;21.60;36.90
37886;DHT22;23726;52.520;13.434;2023-02-13T17:33:45;21.60;36.90
37886;DHT22;23726;52.520;13.434;2023-02-13T17:36:11;21.60;36.90
37886;DHT22;23726;52.520;13.434;2023-02-13T17:38:38;21.60;36.90
37886;DHT22;23726;52.520;13.434;2023-02-13T17:41:13;21.60;36.90
37886;DHT22;23726;52.520;13.434;2023-02-13T17:43:39;21.60;36.80
37886;DHT22;23726;52.520;13.434;2023-02-13T17:46:06;21.60;36.80
37886;DHT22;23726;52.520;13.434;2023-02-13T17:48:31;21.60;36.90
37886;DHT22;23726;52.520;13.434;2023-02-13T17:50:59;21.60;36.80
37886;DHT22;23726;52.520;13.434;2023-02-13T17:53:28;21.60;36.70
37886;DHT22;23726;52.520;13.434;2023-02-13T17:55:54;21.60;36.70
37886;DHT22;23726;52.520;13.434;2023-02-13T17:58:20;21.60;36.80
37886;DHT22;23726;52.520;13.434;2023-02-13T18:00:47;21.60;36.70
37886;DHT22;23726;52.520;13.434;2023-02-13T18:03:13;21.60;36.70
37886;DHT22;23726;52.520;13.434;2023-02-13T18:05:38;21.60;36.80
37886;DHT22;23726;52.520;13.434;2023-02-13T18:08:05;21.60;36.70
37886;DHT22;23726;52.520;13.434;2023-02-13T18:10:34;21.60;36.70
37886;DHT22;23726;52.520;13.434;2023-02-13T18:13:01;21.60;36.60
37886;DHT22;23726;52.520;13.434;2023-02-13T18:15:32;21.60;36.60
37886;DHT22;23726;52.520;13.434;2023-02-13T18:17:58;21.60;37.20
37886;DHT22;23726;52.520;13.434;2023-02-13T18:20:25;21.60;36.60
37886;DHT22;23726;52.520;13.434;2023-02-13T18:22:51;21.60;37.20
37886;DHT22;23726;52.520;13.434;2023-02-13T18:25:17;21.60;36.50
37886;DHT22;23726;52.520;13.434;2023-02-13T18:27:44;21.60;36.60
37886;DHT22;23726;52.520;13.434;2023-02-13T18:30:12;21.60;36.60
37886;DHT22;23726;52.520;13.434;2023-02-13T18:32:39;21.60;37.10
37886;DHT22;23726;52.520;13.434;2023-02-13T18:35:05;21.60;36.60
37886;DHT22;23726;52.520;13.434;2023-02-13T18:37:32;21.60;36.50